»·PEaware :: N5GL KCMA-KRNO

N5GL :: KCMA-KRNO

FLIGHT INFORMATION

Flight Status: Arrived
Operator: Privately registered:
United States
More flights under this callsign
Pilot: Georg L. (13308)
Aircraft: SOCATA TBM-900
(TBM9)
More flights by this aircraft type
Origin: KCMA Camarillo
United States
Destination: KRNO Reno/Tahoe Intl
United States
More flights between these airports :: More routes between these airports
Route: REYES J7 FMG
File this flight plan on PilotEdge
Remarks:
Altitude:
(Current/Filed)
30,000ft
Speed:
(Current/Filed)
315kts
Departed: 26-Dec-20 10:07 AM
Arrived: 26-Dec-20 11:17 AM
Distance/Time
Traveled:
319nm/1:10
Distance/Time
To Go:
Arrived

Flight Plot

Page will automatically refresh every two minutes.

Flight plan parsing failed; only flown route is shown


Map Options




Map Legend


Flown Route
Filed Route
Departure Airport
Arrival Airport
Navaid (VOR, NDB)
Fix

Horizontal Profiles

Position Reports

Time Latitude Longitude Heading Altitude Ground
Speed
26-Dec-20 09:36 34.209835 -119.076729 273 77ft 0kts
26-Dec-20 09:37 34.209835 -119.076729 273 77ft 0kts
26-Dec-20 09:38 34.209835 -119.076729 273 77ft 0kts
26-Dec-20 09:38 34.209835 -119.076729 273 77ft 0kts
26-Dec-20 09:40 34.209835 -119.076729 273 77ft 0kts
26-Dec-20 09:41 34.209835 -119.076729 273 77ft 0kts
26-Dec-20 09:42 34.209835 -119.076729 273 77ft 0kts
26-Dec-20 09:42 34.209835 -119.076729 273 77ft 0kts
26-Dec-20 09:43 34.209835 -119.076729 273 77ft 0kts
26-Dec-20 09:45 34.209835 -119.076729 273 77ft 0kts
26-Dec-20 09:46 34.209835 -119.076729 273 77ft 0kts
26-Dec-20 09:46 34.209835 -119.076729 273 77ft 0kts
26-Dec-20 09:47 34.209835 -119.076729 273 77ft 0kts
26-Dec-20 09:48 34.209835 -119.076729 273 77ft 0kts
26-Dec-20 09:49 34.209835 -119.076729 273 77ft 0kts
26-Dec-20 09:50 34.209835 -119.076729 273 77ft 0kts
26-Dec-20 09:51 34.209835 -119.076729 273 77ft 0kts
26-Dec-20 09:52 34.209835 -119.076729 273 77ft 0kts
26-Dec-20 09:53 34.210057 -119.077066 318 77ft 4kts
26-Dec-20 09:54 34.210565 -119.077158 359 77ft 0kts
26-Dec-20 09:55 34.210964 -119.079061 270 77ft 16kts
26-Dec-20 09:56 34.210994 -119.083872 270 77ft 0kts
26-Dec-20 09:57 34.210994 -119.083879 270 77ft 0kts
26-Dec-20 09:58 34.211851 -119.084493 359 77ft 0kts
26-Dec-20 09:59 34.212444 -119.084510 357 77ft 6kts
26-Dec-20 10:00 34.213003 -119.084500 1 77ft 0kts
26-Dec-20 10:01 34.213003 -119.084500 1 77ft 0kts
26-Dec-20 10:02 34.213003 -119.084500 1 77ft 0kts
26-Dec-20 10:03 34.213003 -119.084500 1 77ft 0kts
26-Dec-20 10:04 34.213003 -119.084500 1 77ft 0kts
26-Dec-20 10:05 34.213351 -119.084512 358 77ft 10kts
26-Dec-20 10:06 34.216560 -119.112369 290 917ft 134kts
26-Dec-20 10:07 34.230683 -119.161728 287 3678ft 132kts
26-Dec-20 10:08 34.245302 -119.218966 286 5015ft 188kts
26-Dec-20 10:09 34.274045 -119.268602 9 6897ft 192kts
26-Dec-20 10:10 34.331770 -119.248028 11 8241ft 209kts
26-Dec-20 10:11 34.392089 -119.226869 7 9952ft 211kts
26-Dec-20 10:12 34.455910 -119.204823 6 11648ft 217kts
26-Dec-20 10:13 34.520906 -119.182256 5 13340ft 221kts
26-Dec-20 10:14 34.587594 -119.159059 3 14799ft 227kts
26-Dec-20 10:15 34.655108 -119.137046 341 16008ft 215kts
26-Dec-20 10:16 34.705426 -119.173818 312 17423ft 190kts
26-Dec-20 10:17 34.752962 -119.213728 310 18990ft 192kts
26-Dec-20 10:18 34.800773 -119.254109 310 20329ft 196kts
26-Dec-20 10:19 34.846444 -119.292728 310 21642ft 200kts
26-Dec-20 10:20 34.897039 -119.335588 309 22889ft 205kts
26-Dec-20 10:21 34.948961 -119.379634 309 23964ft 209kts
26-Dec-20 10:22 35.001415 -119.424193 309 24921ft 211kts
26-Dec-20 10:23 35.053992 -119.468937 309 25747ft 213kts
26-Dec-20 10:24 35.106695 -119.513882 309 26530ft 217kts
26-Dec-20 10:25 35.160728 -119.559971 308 27787ft 217kts
26-Dec-20 10:26 35.212635 -119.604367 308 28769ft 219kts
26-Dec-20 10:27 35.270705 -119.641368 336 29658ft 266kts
26-Dec-20 10:28 35.354864 -119.637900 342 30314ft 287kts
26-Dec-20 10:29 35.444742 -119.634574 343 30309ft 305kts
26-Dec-20 10:30 35.539004 -119.631087 344 30306ft 312kts
26-Dec-20 10:31 35.634144 -119.627577 344 30305ft 313kts
26-Dec-20 10:32 35.728252 -119.624103 344 30307ft 314kts
26-Dec-20 10:33 35.823699 -119.620572 343 30310ft 314kts
26-Dec-20 10:34 35.919713 -119.617013 343 30308ft 315kts
26-Dec-20 10:35 36.011554 -119.614214 342 30306ft 313kts
26-Dec-20 10:36 36.102095 -119.612678 342 30306ft 313kts
26-Dec-20 10:37 36.191005 -119.611162 342 30303ft 313kts
26-Dec-20 10:38 36.282822 -119.609599 342 30304ft 313kts
26-Dec-20 10:39 36.377270 -119.607989 342 30302ft 313kts
26-Dec-20 10:40 36.471914 -119.606369 342 30305ft 313kts
26-Dec-20 10:41 36.562714 -119.604813 342 30307ft 313kts
26-Dec-20 10:42 36.654301 -119.603238 341 30307ft 313kts
26-Dec-20 10:43 36.748131 -119.601621 341 30306ft 313kts
26-Dec-20 10:44 36.841026 -119.600017 341 30308ft 313kts
26-Dec-20 10:45 36.936136 -119.598371 341 30311ft 313kts
26-Dec-20 10:46 37.031349 -119.596719 341 30307ft 313kts
26-Dec-20 10:47 37.125893 -119.595955 339 30302ft 310kts
26-Dec-20 10:48 37.217923 -119.598191 339 30288ft 309kts
26-Dec-20 10:49 37.312051 -119.600468 339 30185ft 310kts
26-Dec-20 10:50 37.406370 -119.602767 338 30330ft 307kts
26-Dec-20 10:51 37.501872 -119.605107 338 30168ft 311kts
26-Dec-20 10:52 37.597153 -119.607424 338 30169ft 310kts
26-Dec-20 10:53 37.690752 -119.609721 338 30144ft 310kts
26-Dec-20 10:54 37.782407 -119.611976 338 30148ft 309kts
26-Dec-20 10:55 37.875321 -119.614268 338 30141ft 309kts
26-Dec-20 10:56 37.968679 -119.616574 338 30142ft 309kts
26-Dec-20 10:57 38.063493 -119.618923 338 30146ft 309kts
26-Dec-20 10:58 38.158770 -119.621421 339 29161ft 334kts
26-Dec-20 10:59 38.263021 -119.623957 341 27533ft 346kts
26-Dec-20 11:00 38.366207 -119.626501 342 25909ft 341kts
26-Dec-20 11:01 38.469956 -119.629091 342 24265ft 336kts
26-Dec-20 11:02 38.570362 -119.631593 343 22805ft 327kts
26-Dec-20 11:03 38.669957 -119.634100 344 21074ft 324kts
26-Dec-20 11:04 38.766512 -119.636532 346 19386ft 318kts
26-Dec-20 11:05 38.861044 -119.638938 348 17726ft 310kts
26-Dec-20 11:07 38.953377 -119.641285 349 16256ft 304kts
26-Dec-20 11:08 39.041180 -119.643455 348 16027ft 279kts
26-Dec-20 11:09 39.124441 -119.645598 348 16027ft 273kts
26-Dec-20 11:10 39.209092 -119.647830 349 15418ft 291kts
26-Dec-20 11:11 39.296784 -119.650058 351 13598ft 302kts
26-Dec-20 11:12 39.383516 -119.652987 348 11812ft 298kts
26-Dec-20 11:13 39.468743 -119.667633 341 8992ft 277kts
26-Dec-20 11:14 39.536444 -119.706087 322 6894ft 250kts
26-Dec-20 11:15 39.554963 -119.776612 221 5705ft 216kts
26-Dec-20 11:16 39.517467 -119.766708 179 4563ft 94kts
26-Dec-20 11:17 39.502872 -119.766595 113 4406ft 8kts
26-Dec-20 11:18 39.502463 -119.765725 180 4405ft 7kts
26-Dec-20 11:19 39.500879 -119.764585 52 4404ft 8kts
26-Dec-20 11:20 39.501616 -119.764902 268 4404ft 0kts
26-Dec-20 11:21 39.501616 -119.764902 268 4404ft 0kts
26-Dec-20 11:22 39.501616 -119.764902 268 4404ft 0kts
26-Dec-20 11:22 39.501616 -119.764902 268 4404ft 0kts
26-Dec-20 11:24 39.501616 -119.764902 268 4404ft 0kts

Navigation Log

Ident Type
Flight plan parsing failed, navigation log unavailable